Time;durP1;ratioP1;P1;durP2;ratioP2;P2;SDS_P1;SDS_P2;PMS_P1;PMS_P2;Temp;Humidity;BMP_temperature;BMP_pressure;BME280_temperature;BME280_humidity;BME280_pressure;Samples;Min_cycle;Max_cycle;Signal;HPM_P1;HPM_P2
2022/04/23 00:02:21;;;;;;;23.80;20.60;;;;;;;;;;4956366;28;20416;-51
2022/04/23 00:04:47;;;;;;;24.30;18.50;;;;;;;;;;4956343;28;20552;-50
2022/04/23 00:07:13;;;;;;;26.17;20.37;;;;;;;;;;4956037;28;20402;-52
2022/04/23 00:09:39;;;;;;;26.53;20.07;;;;;;;;;;4955323;28;20433;-49
2022/04/23 00:12:05;;;;;;;25.87;19.50;;;;;;;;;;4956261;28;20465;-48
2022/04/23 00:14:31;;;;;;;24.93;20.60;;;;;;;;;;4956163;28;20410;-49
2022/04/23 00:17:00;;;;;;;24.83;20.10;;;;;;;;;;4956180;28;20476;-48
2022/04/23 00:19:27;;;;;;;23.50;19.20;;;;;;;;;;4955344;28;20433;-49
2022/04/23 00:21:53;;;;;;;22.80;18.60;;;;;;;;;;4956005;28;20890;-49
2022/04/23 00:24:21;;;;;;;23.80;19.20;;;;;;;;;;4955854;28;20450;-49
2022/04/23 00:26:47;;;;;;;24.10;19.20;;;;;;;;;;4955911;28;20492;-49
2022/04/23 00:29:13;;;;;;;24.00;19.60;;;;;;;;;;4955165;28;20513;-49
2022/04/23 00:31:41;;;;;;;22.20;19.07;;;;;;;;;;4955900;28;20457;-51
2022/04/23 00:34:07;;;;;;;27.30;18.40;;;;;;;;;;4955848;28;20757;-50
2022/04/23 00:36:33;;;;;;;21.83;17.30;;;;;;;;;;4955762;28;20409;-52
2022/04/23 00:38:59;;;;;;;24.80;17.73;;;;;;;;;;4954816;28;20398;-52
2022/04/23 00:41:45;;;;;;;21.60;18.63;;;;;;;;;;4955691;28;20413;-49
2022/04/23 00:44:11;;;;;;;20.00;16.43;;;;;;;;;;4955575;28;20409;-49
2022/04/23 00:46:37;;;;;;;22.50;17.63;;;;;;;;;;4955577;28;20402;-48
2022/04/23 00:49:05;;;;;;;21.20;17.63;;;;;;;;;;4954761;28;20470;-49
2022/04/23 00:51:32;;;;;;;21.37;19.00;;;;;;;;;;4955440;28;20413;-48
2022/04/23 00:53:59;;;;;;;22.83;16.80;;;;;;;;;;4955436;28;20892;-51
2022/04/23 00:56:25;;;;;;;21.30;17.73;;;;;;;;;;4955482;28;21010;-48
2022/04/23 00:58:52;;;;;;;25.00;18.00;;;;;;;;;;4954605;28;20870;-48
2022/04/23 01:01:22;;;;;;;20.70;17.03;;;;;;;;;;4954790;28;20444;-49
2022/04/23 01:03:48;;;;;;;24.87;18.67;;;;;;;;;;4954546;28;20398;-49
2022/04/23 01:06:14;;;;;;;21.77;18.10;;;;;;;;;;4954763;28;20457;-49
2022/04/23 01:08:40;;;;;;;24.27;19.20;;;;;;;;;;4954381;28;20408;-49
2022/04/23 01:11:06;;;;;;;25.93;20.73;;;;;;;;;;4955039;28;20398;-48
2022/04/23 01:13:33;;;;;;;27.17;20.23;;;;;;;;;;4955109;28;20438;-49
2022/04/23 01:15:59;;;;;;;24.90;20.30;;;;;;;;;;4955036;28;20469;-48
2022/04/23 01:18:25;;;;;;;25.47;20.23;;;;;;;;;;4953876;28;20479;-49
2022/04/23 01:20:51;;;;;;;28.43;21.67;;;;;;;;;;4954860;28;20426;-49
2022/04/23 01:23:17;;;;;;;27.63;21.57;;;;;;;;;;4954920;28;20500;-48
2022/04/23 01:25:43;;;;;;;27.47;22.40;;;;;;;;;;4954795;28;20543;-49
2022/04/23 01:28:10;;;;;;;27.10;22.70;;;;;;;;;;4954871;28;20468;-50
2022/04/23 01:30:36;;;;;;;30.90;23.10;;;;;;;;;;4953640;28;20512;-49
2022/04/23 01:33:02;;;;;;;34.43;25.00;;;;;;;;;;4954499;28;20894;-49
2022/04/23 01:35:29;;;;;;;35.63;25.70;;;;;;;;;;4954646;28;20425;-49
2022/04/23 01:37:55;;;;;;;34.93;26.57;;;;;;;;;;4954542;28;20882;-52
2022/04/23 01:40:21;;;;;;;34.33;26.00;;;;;;;;;;4953936;28;20431;-49
2022/04/23 01:42:47;;;;;;;35.10;28.93;;;;;;;;;;4954883;28;20476;-49
2022/04/23 01:45:13;;;;;;;39.80;29.70;;;;;;;;;;4954476;28;20862;-49
2022/04/23 01:47:39;;;;;;;40.10;30.17;;;;;;;;;;4954345;28;20406;-48
2022/04/23 01:50:06;;;;;;;43.20;30.10;;;;;;;;;;4953744;28;20434;-49
2022/04/23 01:52:32;;;;;;;45.13;31.53;;;;;;;;;;4954372;28;20821;-48
2022/04/23 01:54:58;;;;;;;38.83;28.97;;;;;;;;;;4954386;28;20413;-49
2022/04/23 01:57:24;;;;;;;41.80;31.97;;;;;;;;;;4954317;28;20436;-49
2022/04/23 01:59:50;;;;;;;45.60;32.87;;;;;;;;;;4953961;28;20493;-49
2022/04/23 02:02:16;;;;;;;46.30;31.43;;;;;;;;;;4954163;28;20772;-49
2022/04/23 02:04:42;;;;;;;39.87;30.30;;;;;;;;;;4954132;28;20464;-49
2022/04/23 02:07:08;;;;;;;36.83;29.57;;;;;;;;;;4954187;28;20412;-49
2022/04/23 02:09:34;;;;;;;41.30;31.57;;;;;;;;;;4953419;28;20433;-50
2022/04/23 02:12:00;;;;;;;43.00;31.30;;;;;;;;;;4954475;28;20409;-50
2022/04/23 02:14:26;;;;;;;41.63;31.10;;;;;;;;;;4954537;28;20406;-52
2022/04/23 02:16:52;;;;;;;42.57;32.20;;;;;;;;;;4953941;28;20560;-49
2022/04/23 02:19:18;;;;;;;41.83;32.40;;;;;;;;;;4953366;28;20425;-51
2022/04/23 02:21:45;;;;;;;40.07;30.10;;;;;;;;;;4954064;28;20508;-52
2022/04/23 02:24:11;;;;;;;41.33;30.23;;;;;;;;;;4953757;28;20887;-49
2022/04/23 02:26:37;;;;;;;41.53;30.80;;;;;;;;;;4954315;28;20493;-49
2022/04/23 02:29:03;;;;;;;38.33;29.30;;;;;;;;;;4951445;28;20436;-50
2022/04/23 02:31:29;;;;;;;43.40;31.53;;;;;;;;;;4953784;28;20406;-51
2022/04/23 02:33:57;;;;;;;45.13;32.13;;;;;;;;;;4953860;28;20510;-53
2022/04/23 02:36:23;;;;;;;39.20;32.20;;;;;;;;;;4953801;28;20407;-48
2022/04/23 02:38:51;;;;;;;43.93;31.13;;;;;;;;;;4953000;28;20782;-49
2022/04/23 02:41:17;;;;;;;47.87;33.00;;;;;;;;;;4953766;28;20816;-49
2022/04/23 02:43:45;;;;;;;43.47;32.20;;;;;;;;;;4953676;28;20510;-49
2022/04/23 02:46:14;;;;;;;46.33;32.53;;;;;;;;;;4953648;28;20463;-48
2022/04/23 02:48:40;;;;;;;42.00;31.00;;;;;;;;;;4952996;28;20403;-49
2022/04/23 02:51:06;;;;;;;42.53;30.47;;;;;;;;;;4953464;28;20430;-49
2022/04/23 02:53:32;;;;;;;42.40;32.17;;;;;;;;;;4953676;28;20547;-49
2022/04/23 02:56:02;;;;;;;44.57;32.23;;;;;;;;;;4953490;28;20465;-49
2022/04/23 02:58:28;;;;;;;41.90;31.57;;;;;;;;;;4953208;28;20491;-49
2022/04/23 03:00:55;;;;;;;43.53;31.13;;;;;;;;;;4953642;28;20437;-49
2022/04/23 03:03:22;;;;;;;43.20;31.20;;;;;;;;;;4953566;28;20409;-49
2022/04/23 03:05:53;;;;;;;40.97;30.50;;;;;;;;;;4953580;28;20969;-49
2022/04/23 03:08:19;;;;;;;45.00;31.87;;;;;;;;;;4953486;28;20435;-49
2022/04/23 03:10:45;;;;;;;36.90;28.77;;;;;;;;;;4952819;28;20480;-50
2022/04/23 03:13:11;;;;;;;41.00;31.00;;;;;;;;;;4953481;28;20406;-49
2022/04/23 03:15:37;;;;;;;45.23;31.17;;;;;;;;;;4953537;28;20409;-48
2022/04/23 03:18:07;;;;;;;41.97;31.47;;;;;;;;;;4953373;28;20437;-51
2022/04/23 03:20:33;;;;;;;40.77;30.90;;;;;;;;;;4952686;28;20512;-49
2022/04/23 03:22:59;;;;;;;41.97;30.93;;;;;;;;;;4953303;28;20438;-50
2022/04/23 03:25:26;;;;;;;38.53;28.87;;;;;;;;;;4953357;28;20903;-50
2022/04/23 03:27:52;;;;;;;40.17;30.87;;;;;;;;;;4953381;28;20445;-49
2022/04/23 03:30:18;;;;;;;43.93;30.90;;;;;;;;;;4951115;28;20445;-49
2022/04/23 03:32:43;;;;;;;37.60;29.70;;;;;;;;;;4953197;28;20795;-52
2022/04/23 03:35:09;;;;;;;38.93;30.43;;;;;;;;;;4953166;28;20413;-53
2022/04/23 03:37:39;;;;;;;38.40;29.60;;;;;;;;;;4953421;28;20650;-49
2022/04/23 03:40:06;;;;;;;43.03;31.03;;;;;;;;;;4952748;28;20469;-49
2022/04/23 03:42:32;;;;;;;45.17;30.17;;;;;;;;;;4955687;28;20951;-49
2022/04/23 03:44:57;;;;;;;43.27;30.97;;;;;;;;;;4956688;28;20465;-48
2022/04/23 03:47:23;;;;;;;40.60;29.27;;;;;;;;;;4956675;28;20413;-48
2022/04/23 03:49:49;;;;;;;46.40;30.90;;;;;;;;;;4955685;28;20429;-50
2022/04/23 03:52:15;;;;;;;39.87;29.60;;;;;;;;;;4956731;28;20893;-49
2022/04/23 03:54:41;;;;;;;42.10;31.60;;;;;;;;;;4956766;28;20406;-50
2022/04/23 03:57:07;;;;;;;39.93;30.33;;;;;;;;;;4956486;28;20745;-50
2022/04/23 03:59:37;;;;;;;42.80;30.40;;;;;;;;;;4955754;28;20437;-50
2022/04/23 04:02:04;;;;;;;46.57;31.40;;;;;;;;;;4956313;28;20414;-48
2022/04/23 04:04:35;;;;;;;42.47;31.17;;;;;;;;;;4956191;28;20457;-51
2022/04/23 04:07:01;;;;;;;43.17;32.77;;;;;;;;;;4956297;28;20960;-49
2022/04/23 04:09:28;;;;;;;42.47;31.80;;;;;;;;;;4955567;28;20460;-49
2022/04/23 04:12:06;;;;;;;37.53;30.13;;;;;;;;;;4956184;28;20493;-53
2022/04/23 04:14:34;;;;;;;42.10;31.27;;;;;;;;;;4956163;28;20477;-49
2022/04/23 04:17:01;;;;;;;43.50;32.03;;;;;;;;;;4956011;28;20406;-49
2022/04/23 04:19:32;;;;;;;38.80;29.77;;;;;;;;;;4955281;28;20449;-52
2022/04/23 04:21:58;;;;;;;39.87;30.17;;;;;;;;;;4955963;28;20414;-49
2022/04/23 04:24:26;;;;;;;40.80;30.70;;;;;;;;;;4955963;28;20548;-48
2022/04/23 04:26:52;;;;;;;40.33;30.43;;;;;;;;;;4955964;28;20493;-49
2022/04/23 04:29:19;;;;;;;40.87;32.00;;;;;;;;;;4953528;28;20969;-49
2022/04/23 04:31:49;;;;;;;41.90;29.97;;;;;;;;;;4955766;28;20843;-48
2022/04/23 04:34:18;;;;;;;44.40;31.07;;;;;;;;;;4955839;28;20409;-49
2022/04/23 04:36:45;;;;;;;40.07;31.00;;;;;;;;;;4955790;28;20410;-52
2022/04/23 04:39:11;;;;;;;40.47;30.93;;;;;;;;;;4954939;28;21015;-50
2022/04/23 04:41:37;;;;;;;38.10;30.80;;;;;;;;;;4955744;28;20774;-48
2022/04/23 04:44:04;;;;;;;41.57;31.57;;;;;;;;;;4955649;28;20401;-49
2022/04/23 04:46:30;;;;;;;41.90;32.20;;;;;;;;;;4955603;28;20406;-49
2022/04/23 04:48:55;;;;;;;40.80;30.67;;;;;;;;;;4954620;28;20402;-49
2022/04/23 04:51:23;;;;;;;41.90;29.90;;;;;;;;;;4955601;28;20433;-50
2022/04/23 04:53:51;;;;;;;37.70;29.77;;;;;;;;;;4954460;28;20913;-48
2022/04/23 04:56:17;;;;;;;41.70;31.23;;;;;;;;;;4955418;28;20476;-52
2022/04/23 04:58:43;;;;;;;41.70;32.97;;;;;;;;;;4955798;28;20991;-52
2022/04/23 05:01:10;;;;;;;44.50;31.43;;;;;;;;;;4955402;28;20398;-52
2022/04/23 05:03:36;;;;;;;42.87;31.67;;;;;;;;;;4955276;28;20891;-51
2022/04/23 05:06:03;;;;;;;44.60;32.20;;;;;;;;;;4955192;28;20472;-51
2022/04/23 05:08:29;;;;;;;36.50;29.50;;;;;;;;;;4954588;28;20406;-52
2022/04/23 05:10:55;;;;;;;37.93;30.13;;;;;;;;;;4955257;28;20929;-52
2022/04/23 05:13:21;;;;;;;41.50;31.47;;;;;;;;;;4955316;28;20945;-53
2022/04/23 05:15:48;;;;;;;42.03;31.80;;;;;;;;;;4955250;28;20918;-51
2022/04/23 05:18:14;;;;;;;42.07;30.73;;;;;;;;;;4954975;28;20414;-53
2022/04/23 05:20:40;;;;;;;43.23;31.87;;;;;;;;;;4954253;28;20440;-53
2022/04/23 05:23:06;;;;;;;38.77;30.87;;;;;;;;;;4954864;28;20441;-53
2022/04/23 05:25:32;;;;;;;39.63;30.10;;;;;;;;;;4954779;28;20458;-52
2022/04/23 05:27:59;;;;;;;39.90;31.30;;;;;;;;;;4955018;28;20433;-53
2022/04/23 05:30:25;;;;;;;39.87;30.17;;;;;;;;;;4952576;28;20488;-53
2022/04/23 05:32:51;;;;;;;39.27;30.37;;;;;;;;;;4954558;28;20473;-52
2022/04/23 05:35:17;;;;;;;36.07;29.50;;;;;;;;;;4954614;28;20437;-52
2022/04/23 05:37:43;;;;;;;42.03;31.17;;;;;;;;;;4954320;28;20923;-53
2022/04/23 05:40:09;;;;;;;41.07;30.53;;;;;;;;;;4953216;28;20436;-51
2022/04/23 05:42:35;;;;;;;38.23;30.90;;;;;;;;;;4954114;28;20906;-53
2022/04/23 05:45:01;;;;;;;39.83;31.00;;;;;;;;;;4953811;28;20469;-50
2022/04/23 05:47:27;;;;;;;39.83;31.27;;;;;;;;;;4953932;28;20409;-52
2022/04/23 05:49:53;;;;;;;42.80;32.80;;;;;;;;;;4953306;28;20624;-53
2022/04/23 05:52:19;;;;;;;40.87;31.03;;;;;;;;;;4949013;28;20430;-52
2022/04/23 05:54:45;;;;;;;39.93;30.47;;;;;;;;;;4952231;29;20416;-53
2022/04/23 05:57:10;;;;;;;39.20;31.50;;;;;;;;;;4954899;28;20406;-55
2022/04/23 05:59:36;;;;;;;42.73;31.70;;;;;;;;;;4953069;28;20429;-54
2022/04/23 06:02:03;;;;;;;41.80;31.20;;;;;;;;;;4953909;28;20406;-53
2022/04/23 06:04:29;;;;;;;42.00;32.40;;;;;;;;;;4952538;28;20965;-55
2022/04/23 06:06:55;;;;;;;39.87;30.87;;;;;;;;;;4952437;28;20430;-54
2022/04/23 06:09:23;;;;;;;38.57;31.33;;;;;;;;;;4953284;28;20434;-55
2022/04/23 06:11:49;;;;;;;41.20;31.47;;;;;;;;;;4954160;28;20406;-53
2022/04/23 06:14:15;;;;;;;39.17;28.50;;;;;;;;;;4953728;28;20887;-55
2022/04/23 06:16:41;;;;;;;38.40;30.87;;;;;;;;;;4954083;28;20406;-54
2022/04/23 06:19:08;;;;;;;44.60;32.90;;;;;;;;;;4953110;28;20429;-54
2022/04/23 06:21:34;;;;;;;37.67;30.40;;;;;;;;;;4953972;28;20895;-52
2022/04/23 06:23:59;;;;;;;39.77;32.20;;;;;;;;;;4954027;28;20413;-53
2022/04/23 06:26:26;;;;;;;39.73;32.03;;;;;;;;;;4953813;28;20473;-54
2022/04/23 06:28:52;;;;;;;39.13;30.77;;;;;;;;;;4953582;28;20406;-53
2022/04/23 06:31:18;;;;;;;39.90;32.00;;;;;;;;;;4953287;28;20785;-53
2022/04/23 06:33:44;;;;;;;46.73;30.60;;;;;;;;;;4953849;28;20569;-54
2022/04/23 06:36:10;;;;;;;39.13;30.60;;;;;;;;;;4953870;28;20885;-55
2022/04/23 06:38:36;;;;;;;42.47;32.17;;;;;;;;;;4953066;28;20829;-55
2022/04/23 06:41:02;;;;;;;41.67;31.20;;;;;;;;;;4953667;28;20430;-55
2022/04/23 06:43:28;;;;;;;38.03;30.23;;;;;;;;;;4953750;28;20478;-55
2022/04/23 06:45:54;;;;;;;34.40;28.70;;;;;;;;;;4953635;28;20913;-55
2022/04/23 06:48:21;;;;;;;36.57;30.37;;;;;;;;;;4953862;28;20435;-54
2022/04/23 06:50:47;;;;;;;39.20;31.50;;;;;;;;;;4953037;28;20450;-52
2022/04/23 06:53:13;;;;;;;34.20;28.90;;;;;;;;;;4953627;28;20403;-54
2022/04/23 06:55:39;;;;;;;37.77;29.93;;;;;;;;;;4953636;28;20386;-54
2022/04/23 06:58:05;;;;;;;42.23;32.13;;;;;;;;;;4953673;28;20398;-55
2022/04/23 07:00:31;;;;;;;36.33;29.93;;;;;;;;;;4952727;28;20436;-54
2022/04/23 07:02:57;;;;;;;38.37;30.33;;;;;;;;;;4953586;28;20451;-54
2022/04/23 07:05:23;;;;;;;38.50;30.43;;;;;;;;;;4953709;28;20465;-54
2022/04/23 07:07:56;;;;;;;33.93;29.50;;;;;;;;;;4953556;28;20438;-53
2022/04/23 07:10:22;;;;;;;38.30;31.40;;;;;;;;;;4952805;28;20708;-55
2022/04/23 07:12:49;;;;;;;40.03;29.20;;;;;;;;;;4953510;28;20887;-55
2022/04/23 07:15:15;;;;;;;36.27;30.93;;;;;;;;;;4952312;28;20426;-53
2022/04/23 07:17:41;;;;;;;37.47;30.50;;;;;;;;;;4956351;28;20473;-54
2022/04/23 07:20:08;;;;;;;34.60;30.20;;;;;;;;;;4956506;28;20796;-55
2022/04/23 07:22:34;;;;;;;35.43;26.73;;;;;;;;;;4957107;28;20881;-52
2022/04/23 07:25:01;;;;;;;37.17;31.03;;;;;;;;;;4956979;28;20526;-55
2022/04/23 07:27:27;;;;;;;35.60;30.43;;;;;;;;;;4957113;28;20913;-53
2022/04/23 07:29:53;;;;;;;35.10;28.57;;;;;;;;;;4956204;28;20407;-55
2022/04/23 07:32:21;;;;;;;38.67;29.60;;;;;;;;;;4956917;28;20402;-55
2022/04/23 07:37:33;;;;;;;33.33;28.77;;;;;;;;;;4956694;29;20389;-55
2022/04/23 07:40:05;;;;;;;35.70;29.13;;;;;;;;;;4956114;28;20439;-55
2022/04/23 07:42:31;;;;;;;28.90;25.80;;;;;;;;;;4956759;28;20381;-56
2022/04/23 07:44:57;;;;;;;30.20;27.20;;;;;;;;;;4956554;28;20543;-55
2022/04/23 07:47:23;;;;;;;28.70;25.80;;;;;;;;;;4956815;28;20413;-55
2022/04/23 07:49:50;;;;;;;30.60;27.40;;;;;;;;;;4955956;28;20504;-53
2022/04/23 07:52:16;;;;;;;30.27;27.07;;;;;;;;;;4956611;28;20464;-54
2022/04/23 07:54:43;;;;;;;30.33;27.17;;;;;;;;;;4956486;28;20468;-56
2022/04/23 07:57:09;;;;;;;30.77;27.47;;;;;;;;;;4956543;28;20606;-56
2022/04/23 07:59:39;;;;;;;29.23;25.80;;;;;;;;;;4955610;28;20871;-56
2022/04/23 08:02:06;;;;;;;29.87;26.77;;;;;;;;;;4956363;28;20418;-54
2022/04/23 08:04:32;;;;;;;29.50;26.47;;;;;;;;;;4956293;28;20458;-54
2022/04/23 08:06:58;;;;;;;28.70;25.70;;;;;;;;;;4956372;28;20464;-53
2022/04/23 08:09:24;;;;;;;28.43;25.50;;;;;;;;;;4958065;28;20477;-55
2022/04/23 08:11:50;;;;;;;27.67;25.03;;;;;;;;;;4975363;28;20425;-55
2022/04/23 08:14:16;;;;;;;25.50;23.00;;;;;;;;;;4966254;28;20419;-55
2022/04/23 08:16:42;;;;;;;26.70;24.00;;;;;;;;;;4962822;28;20836;-56
2022/04/23 08:19:11;;;;;;;27.17;24.30;;;;;;;;;;4974692;28;20470;-55
2022/04/23 08:21:37;;;;;;;33.87;25.87;;;;;;;;;;4958000;28;20945;-56
2022/04/23 08:24:03;;;;;;;25.60;23.03;;;;;;;;;;4955752;28;20461;-56
2022/04/23 08:26:29;;;;;;;29.30;26.40;;;;;;;;;;4972593;28;20551;-56
2022/04/23 08:31:40;;;;;;;25.37;22.60;;;;;;;;;;4975125;28;20930;-56
2022/04/23 08:34:06;;;;;;;20.70;18.67;;;;;;;;;;4975162;28;20397;-55
2022/04/23 08:36:36;;;;;;;24.77;17.73;;;;;;;;;;4975178;28;20889;-56
2022/04/23 08:39:04;;;;;;;17.30;15.53;;;;;;;;;;4974445;28;20423;-56
2022/04/23 08:41:31;;;;;;;17.73;15.87;;;;;;;;;;4960290;28;20417;-56
2022/04/23 08:43:58;;;;;;;20.83;18.63;;;;;;;;;;4956539;28;20409;-55
2022/04/23 08:46:25;;;;;;;26.40;22.93;;;;;;;;;;4954172;28;20846;-54
2022/04/23 08:48:55;;;;;;;25.83;22.57;;;;;;;;;;4953735;28;20409;-55
2022/04/23 08:51:22;;;;;;;24.57;21.97;;;;;;;;;;4954542;28;20852;-55
2022/04/23 08:53:48;;;;;;;25.57;22.97;;;;;;;;;;4950444;28;20435;-55
2022/04/23 08:56:14;;;;;;;26.17;21.53;;;;;;;;;;4955337;28;20404;-55
2022/04/23 08:58:40;;;;;;;24.93;22.50;;;;;;;;;;4951348;28;20520;-53
2022/04/23 09:01:07;;;;;;;26.17;23.27;;;;;;;;;;4954796;28;20527;-56
2022/04/23 09:03:33;;;;;;;28.23;25.43;;;;;;;;;;4955278;28;20449;-55
2022/04/23 09:05:59;;;;;;;30.20;27.07;;;;;;;;;;4955131;28;20461;-56
2022/04/23 09:08:29;;;;;;;31.03;27.90;;;;;;;;;;4953867;28;20510;-55
2022/04/23 09:10:56;;;;;;;28.87;25.80;;;;;;;;;;4952285;28;21074;-49
2022/04/23 09:13:31;;;;;;;31.47;27.60;;;;;;;;;;4953796;28;20427;-51
2022/04/23 09:24:51;;;;;;;27.50;24.50;;;;;;;;;;4955113;29;20456;-50
2022/04/23 09:27:17;;;;;;;25.03;22.10;;;;;;;;;;4954245;28;20419;-52
2022/04/23 09:29:58;;;;;;;23.50;21.30;;;;;;;;;;4954094;28;20432;-50
2022/04/23 09:32:24;;;;;;;24.00;21.70;;;;;;;;;;4953956;28;20462;-51
2022/04/23 09:35:03;;;;;;;27.30;22.87;;;;;;;;;;4954430;28;20410;-52
2022/04/23 09:40:21;;;;;;;15.93;14.27;;;;;;;;;;4952487;28;20486;-53
2022/04/23 09:43:00;;;;;;;13.93;12.63;;;;;;;;;;4954007;29;20919;-51
2022/04/23 09:45:26;;;;;;;19.77;13.27;;;;;;;;;;4954467;28;20471;-51
2022/04/23 09:47:54;;;;;;;14.30;12.80;;;;;;;;;;4954615;28;20437;-53
2022/04/23 09:50:20;;;;;;;13.00;11.70;;;;;;;;;;4946110;29;20491;-51
2022/04/23 09:52:46;;;;;;;11.97;10.87;;;;;;;;;;4953961;28;20432;-51
2022/04/23 09:55:13;;;;;;;12.40;11.10;;;;;;;;;;4954538;28;20764;-51
2022/04/23 09:57:39;;;;;;;13.67;12.30;;;;;;;;;;4954294;28;20411;-51
2022/04/23 10:00:06;;;;;;;13.27;11.97;;;;;;;;;;4942271;28;20444;-52
2022/04/23 10:02:32;;;;;;;12.93;11.73;;;;;;;;;;4954249;28;20414;-56
2022/04/23 10:05:00;;;;;;;11.60;10.60;;;;;;;;;;4954243;28;20456;-51
2022/04/23 10:07:28;;;;;;;14.97;12.50;;;;;;;;;;4938093;28;20414;-53
2022/04/23 10:09:55;;;;;;;14.40;12.90;;;;;;;;;;4934341;29;20418;-54
2022/04/23 10:12:23;;;;;;;13.73;12.40;;;;;;;;;;4934919;29;20418;-56
2022/04/23 10:15:00;;;;;;;13.10;11.90;;;;;;;;;;4935056;29;20402;-55
2022/04/23 10:17:28;;;;;;;13.90;12.60;;;;;;;;;;4934970;29;20410;-56
2022/04/23 10:19:55;;;;;;;14.37;13.00;;;;;;;;;;4952567;29;20432;-55
2022/04/23 10:22:31;;;;;;;14.60;13.10;;;;;;;;;;4953929;28;20719;-55
2022/04/23 10:25:02;;;;;;;16.57;14.90;;;;;;;;;;4949019;28;20475;-55
2022/04/23 10:27:28;;;;;;;14.93;13.40;;;;;;;;;;4950170;28;20457;-55
2022/04/23 10:30:02;;;;;;;15.40;13.73;;;;;;;;;;4951782;28;20953;-54
2022/04/23 10:32:38;;;;;;;15.80;14.20;;;;;;;;;;4952195;29;20890;-53
2022/04/23 10:35:25;;;;;;;17.67;14.30;;;;;;;;;;4952418;28;20405;-54
2022/04/23 10:37:52;;;;;;;16.87;13.77;;;;;;;;;;4943344;29;20822;-54
2022/04/23 10:40:18;;;;;;;14.23;12.40;;;;;;;;;;4949091;28;20477;-54
2022/04/23 10:43:03;;;;;;;22.87;14.63;;;;;;;;;;4953453;28;20416;-55
2022/04/23 10:45:36;;;;;;;16.50;14.83;;;;;;;;;;4953056;28;20523;-55
2022/04/23 10:48:23;;;;;;;14.93;13.40;;;;;;;;;;4953443;28;20420;-54
2022/04/23 10:51:19;;;;;;;15.30;13.70;;;;;;;;;;4953012;28;20434;-54
2022/04/23 10:53:46;;;;;;;13.90;12.60;;;;;;;;;;4955094;29;20897;-54
2022/04/23 10:56:16;;;;;;;14.47;12.97;;;;;;;;;;4955768;28;20422;-51
2022/04/23 10:58:43;;;;;;;15.53;13.97;;;;;;;;;;4956340;28;20496;-52
2022/04/23 11:01:20;;;;;;;14.20;12.70;;;;;;;;;;4956448;28;20480;-55
2022/04/23 11:04:07;;;;;;;15.87;14.37;;;;;;;;;;4937361;29;20465;-53
2022/04/23 11:12:42;;;;;;;15.43;14.00;;;;;;;;;;4957222;29;20459;-54
2022/04/23 11:15:16;;;;;;;16.60;13.20;;;;;;;;;;4955321;28;20441;-55
2022/04/23 11:17:55;;;;;;;13.47;12.20;;;;;;;;;;4956513;28;20844;-53
2022/04/23 11:20:32;;;;;;;14.07;12.70;;;;;;;;;;4954424;28;20442;-50
2022/04/23 11:23:00;;;;;;;13.70;12.60;;;;;;;;;;4955721;28;20425;-56
2022/04/23 11:25:28;;;;;;;17.10;15.40;;;;;;;;;;4955513;29;20468;-54
2022/04/23 11:28:00;;;;;;;14.53;13.13;;;;;;;;;;4955818;28;20914;-50
2022/04/23 11:30:28;;;;;;;15.80;13.67;;;;;;;;;;4954436;28;20442;-49
2022/04/23 11:32:54;;;;;;;13.60;12.20;;;;;;;;;;4955335;28;20443;-55
2022/04/23 11:35:28;;;;;;;13.80;11.70;;;;;;;;;;4956646;28;20475;-55
2022/04/23 11:37:55;;;;;;;14.80;13.20;;;;;;;;;;4956672;28;20424;-54
2022/04/23 11:40:24;;;;;;;14.17;12.67;;;;;;;;;;4954849;28;20463;-54
2022/04/23 11:42:50;;;;;;;16.77;13.60;;;;;;;;;;4956348;28;20512;-56
2022/04/23 11:45:18;;;;;;;14.10;12.80;;;;;;;;;;4954685;29;20464;-56
2022/04/23 11:47:44;;;;;;;13.53;12.13;;;;;;;;;;4956147;28;20590;-56
2022/04/23 11:50:16;;;;;;;16.00;13.37;;;;;;;;;;4956032;28;20518;-56
2022/04/23 11:52:42;;;;;;;17.33;15.53;;;;;;;;;;4956470;28;20416;-54
2022/04/23 11:55:19;;;;;;;19.20;17.23;;;;;;;;;;4956497;28;20539;-55
2022/04/23 11:57:52;;;;;;;16.97;15.20;;;;;;;;;;4937288;28;20426;-56
2022/04/23 12:00:20;;;;;;;16.07;14.47;;;;;;;;;;4937525;29;21050;-54
2022/04/23 12:02:46;;;;;;;16.73;15.10;;;;;;;;;;4954207;28;20435;-56
2022/04/23 12:05:12;;;;;;;24.23;16.37;;;;;;;;;;4955969;28;20466;-50
2022/04/23 12:07:39;;;;;;;18.43;16.60;;;;;;;;;;4954680;29;20913;-55
2022/04/23 12:10:06;;;;;;;17.10;15.30;;;;;;;;;;4953761;28;20497;-55
2022/04/23 12:12:33;;;;;;;19.47;17.47;;;;;;;;;;4955984;28;20409;-55
2022/04/23 12:15:01;;;;;;;17.23;15.07;;;;;;;;;;4954557;28;20816;-54
2022/04/23 12:17:29;;;;;;;17.50;15.57;;;;;;;;;;4955667;28;20409;-54
2022/04/23 12:20:00;;;;;;;20.20;16.70;;;;;;;;;;4954833;28;20525;-55
2022/04/23 12:22:26;;;;;;;16.67;14.93;;;;;;;;;;4955903;28;20410;-53
2022/04/23 12:25:07;;;;;;;19.83;15.07;;;;;;;;;;4954387;28;20461;-54
2022/04/23 12:27:51;;;;;;;16.70;15.00;;;;;;;;;;4955906;28;20504;-56
2022/04/23 12:41:54;;;;;;;19.93;15.57;;;;;;;;;;4955012;29;20451;-55
2022/04/23 12:44:22;;;;;;;15.23;13.57;;;;;;;;;;4955461;28;20406;-55
2022/04/23 12:46:54;;;;;;;20.83;13.93;;;;;;;;;;4955496;28;20418;-54
2022/04/23 12:49:22;;;;;;;15.83;13.60;;;;;;;;;;4954441;28;20442;-54
2022/04/23 12:51:55;;;;;;;15.10;13.60;;;;;;;;;;4955063;28;20584;-54
2022/04/23 12:54:22;;;;;;;15.30;13.70;;;;;;;;;;4955703;28;20840;-55
2022/04/23 12:56:49;;;;;;;15.30;13.80;;;;;;;;;;4936277;29;20418;-56
2022/04/23 12:59:15;;;;;;;16.63;14.20;;;;;;;;;;4934219;29;20427;-54
2022/04/23 13:01:41;;;;;;;15.73;12.87;;;;;;;;;;4953663;29;20507;-54
2022/04/23 13:04:11;;;;;;;15.13;13.53;;;;;;;;;;4955842;28;20493;-56
2022/04/23 13:09:21;;;;;;;14.43;13.03;;;;;;;;;;4953879;28;20962;-52
2022/04/23 13:11:47;;;;;;;14.60;12.90;;;;;;;;;;4955034;28;20520;-54
2022/04/23 13:14:15;;;;;;;14.90;13.37;;;;;;;;;;4954323;28;20414;-50
2022/04/23 13:16:43;;;;;;;15.10;12.83;;;;;;;;;;4954837;28;20458;-50
2022/04/23 13:19:09;;;;;;;16.30;13.33;;;;;;;;;;4954059;28;20865;-52
2022/04/23 13:21:36;;;;;;;13.60;12.30;;;;;;;;;;4954764;28;20422;-51
2022/04/23 13:24:02;;;;;;;17.13;13.37;;;;;;;;;;4954296;28;20514;-49
2022/04/23 13:26:29;;;;;;;16.10;13.60;;;;;;;;;;4954438;28;20459;-50
2022/04/23 13:28:55;;;;;;;15.40;12.90;;;;;;;;;;4953195;28;20461;-50
2022/04/23 13:31:21;;;;;;;15.33;13.73;;;;;;;;;;4954118;28;20515;-53
2022/04/23 13:33:47;;;;;;;14.60;12.70;;;;;;;;;;4954734;28;20433;-53
2022/04/23 13:36:13;;;;;;;13.77;12.40;;;;;;;;;;4954426;28;20420;-55
2022/04/23 13:38:39;;;;;;;15.20;13.00;;;;;;;;;;4953695;28;20936;-52
2022/04/23 13:41:08;;;;;;;12.53;11.23;;;;;;;;;;4954151;28;20455;-49
2022/04/23 13:43:34;;;;;;;13.33;11.67;;;;;;;;;;4954356;28;20773;-52
2022/04/23 13:46:00;;;;;;;14.00;11.00;;;;;;;;;;4954248;28;20886;-53
2022/04/23 13:48:27;;;;;;;12.57;11.30;;;;;;;;;;4953856;28;20416;-60
2022/04/23 13:50:53;;;;;;;13.33;11.60;;;;;;;;;;4953731;28;20441;-52
2022/04/23 13:53:19;;;;;;;13.43;12.03;;;;;;;;;;4954311;28;20470;-50
2022/04/23 13:55:45;;;;;;;13.40;10.57;;;;;;;;;;4948224;28;20434;-50
2022/04/23 13:58:11;;;;;;;12.00;10.80;;;;;;;;;;4954073;28;20471;-51
2022/04/23 14:00:37;;;;;;;11.00;9.80;;;;;;;;;;4953480;28;20440;-53
2022/04/23 14:11:17;;;;;;;10.83;9.73;;;;;;;;;;4953929;29;20527;-50
2022/04/23 14:13:43;;;;;;;12.40;11.20;;;;;;;;;;4954100;28;20463;-50
2022/04/23 14:16:09;;;;;;;11.63;10.27;;;;;;;;;;4953852;28;20427;-51
2022/04/23 14:18:37;;;;;;;11.00;10.00;;;;;;;;;;4952503;28;20978;-50
2022/04/23 14:21:03;;;;;;;11.90;10.80;;;;;;;;;;4953083;28;20441;-54
2022/04/23 14:23:30;;;;;;;13.23;11.87;;;;;;;;;;4953001;28;20466;-52
2022/04/23 14:25:56;;;;;;;14.10;12.33;;;;;;;;;;4953408;28;20486;-52
2022/04/23 14:28:22;;;;;;;14.73;12.00;;;;;;;;;;4953658;28;20424;-52
2022/04/23 14:33:16;;;;;;;17.10;15.10;;;;;;;;;;4970489;28;20264;-50
2022/04/23 14:35:42;;;;;;;16.77;13.63;;;;;;;;;;4973116;28;20499;-49
2022/04/23 14:38:09;;;;;;;15.00;12.80;;;;;;;;;;4972346;28;20441;-50
2022/04/23 14:40:35;;;;;;;15.23;13.70;;;;;;;;;;4973340;28;20413;-50
2022/04/23 14:43:01;;;;;;;16.67;14.87;;;;;;;;;;4971734;28;20910;-50
2022/04/23 14:45:28;;;;;;;16.70;15.00;;;;;;;;;;4972663;28;20463;-50
2022/04/23 14:47:55;;;;;;;16.33;14.63;;;;;;;;;;4973453;28;20450;-54
2022/04/23 14:50:21;;;;;;;18.00;15.03;;;;;;;;;;4972710;28;20429;-53
2022/04/23 14:55:33;;;;;;;16.10;14.40;;;;;;;;;;4972812;28;20431;-53
2022/04/23 14:57:59;;;;;;;15.40;13.80;;;;;;;;;;4972866;28;20787;-54
2022/04/23 15:00:25;;;;;;;18.23;14.47;;;;;;;;;;4972335;28;20954;-53
2022/04/23 15:02:56;;;;;;;16.20;14.50;;;;;;;;;;4971496;28;20441;-54
2022/04/23 15:05:23;;;;;;;14.87;13.40;;;;;;;;;;4972020;28;20460;-53
2022/04/23 15:07:49;;;;;;;15.57;14.07;;;;;;;;;;4972840;28;20380;-53
2022/04/23 15:10:15;;;;;;;14.70;13.20;;;;;;;;;;4972318;28;20776;-53